Time;durP1;ratioP1;P1;durP2;ratioP2;P2;SDS_P1;SDS_P2;PMS_P1;PMS_P2;Temp;Humidity;BMP_temperature;BMP_pressure;BME280_temperature;BME280_humidity;BME280_pressure;Samples;Min_cycle;Max_cycle;Signal;HPM_P1;HPM_P2
2023/03/05 00:02:05;;;;;;;15.02;3.70;;;3.70;99.90;;;;;;5035344;28;20021;-63
2023/03/05 00:04:31;;;;;;;15.30;3.40;;;3.70;99.90;;;;;;5035307;28;20368;-63
2023/03/05 00:06:57;;;;;;;10.18;3.38;;;3.70;99.90;;;;;;5035089;28;20045;-64
2023/03/05 00:09:22;;;;;;;16.75;3.40;;;3.70;99.90;;;;;;5035131;28;20029;-63
2023/03/05 00:11:48;;;;;;;14.02;3.55;;;3.70;99.90;;;;;;5035096;28;20113;-63
2023/03/05 00:14:13;;;;;;;12.63;3.40;;;3.70;99.90;;;;;;5035113;28;20029;-63
2023/03/05 00:16:39;;;;;;;17.15;3.72;;;3.70;99.90;;;;;;5035098;28;20506;-63
2023/03/05 00:19:05;;;;;;;13.90;3.55;;;3.70;99.90;;;;;;5035223;28;20029;-64
2023/03/05 00:21:36;;;;;;;13.18;3.13;;;3.70;99.90;;;;;;5034062;28;20025;-64
2023/03/05 00:24:05;;;;;;;9.00;2.33;;;3.70;99.90;;;;;;5033949;28;20440;-64
2023/03/05 00:26:33;;;;;;;13.23;2.80;;;3.70;99.90;;;;;;5034823;28;20036;-64
2023/03/05 00:28:59;;;;;;;16.08;3.63;;;3.70;99.90;;;;;;5035071;28;20036;-63
2023/03/05 00:31:30;;;;;;;14.60;3.28;;;3.70;99.90;;;;;;5034871;28;20056;-63
2023/03/05 00:33:59;;;;;;;14.73;3.35;;;3.70;99.90;;;;;;5033724;28;20033;-63
2023/03/05 00:36:25;;;;;;;10.60;3.00;;;3.70;99.90;;;;;;5033361;28;20129;-63
2023/03/05 00:38:51;;;;;;;13.25;3.50;;;3.70;99.90;;;;;;5033430;28;20037;-63
2023/03/05 00:41:17;;;;;;;15.88;3.85;;;3.70;99.90;;;;;;5034515;28;20032;-63
2023/03/05 00:43:43;;;;;;;14.95;3.38;;;3.70;99.90;;;;;;5034518;28;20480;-63
2023/03/05 00:46:08;;;;;;;11.20;3.20;;;3.70;99.90;;;;;;5034588;28;20065;-63
2023/03/05 00:48:34;;;;;;;15.57;3.33;;;3.70;99.90;;;;;;5034483;28;20077;-63
2023/03/05 00:51:00;;;;;;;16.13;3.63;;;3.70;99.90;;;;;;5033564;28;20022;-63
2023/03/05 00:53:25;;;;;;;10.98;3.42;;;3.60;99.90;;;;;;5034578;28;20478;-63
2023/03/05 00:55:51;;;;;;;15.35;3.70;;;3.70;99.90;;;;;;5034244;28;20037;-63
2023/03/05 00:58:16;;;;;;;12.70;4.15;;;3.70;99.90;;;;;;5034216;28;20022;-63
2023/03/05 01:00:42;;;;;;;14.35;3.83;;;3.60;99.90;;;;;;5034179;28;20476;-63
2023/03/05 01:03:07;;;;;;;16.75;4.00;;;3.60;99.90;;;;;;5034171;28;20400;-63
2023/03/05 01:05:33;;;;;;;20.58;4.05;;;3.60;99.90;;;;;;5033877;28;20407;-64
2023/03/05 01:07:59;;;;;;;17.67;3.45;;;3.60;99.90;;;;;;5034308;28;20440;-63
2023/03/05 01:10:26;;;;;;;17.58;4.57;;;3.60;99.90;;;;;;5033868;28;20037;-63
2023/03/05 01:12:52;;;;;;;14.90;3.78;;;3.60;99.90;;;;;;5034179;28;20504;-63
2023/03/05 01:15:18;;;;;;;16.27;3.70;;;3.60;99.90;;;;;;5033875;28;20030;-63
2023/03/05 01:17:44;;;;;;;17.73;4.10;;;3.60;99.90;;;;;;5033863;28;20100;-63
2023/03/05 01:20:12;;;;;;;11.88;4.03;;;3.60;99.90;;;;;;5033879;28;20391;-63
2023/03/05 01:22:38;;;;;;;16.92;3.85;;;3.60;99.90;;;;;;5032848;28;20450;-63
2023/03/05 01:25:04;;;;;;;15.63;3.30;;;3.60;99.90;;;;;;5032766;28;20037;-63
2023/03/05 01:27:30;;;;;;;14.65;3.90;;;3.60;99.90;;;;;;5033694;28;20033;-63
2023/03/05 01:29:55;;;;;;;17.52;4.40;;;3.60;99.90;;;;;;5033657;28;20017;-63
2023/03/05 01:32:21;;;;;;;17.70;4.13;;;3.60;99.90;;;;;;5033600;28;20032;-63
2023/03/05 01:34:46;;;;;;;15.75;4.28;;;3.60;99.90;;;;;;5033808;28;20022;-63
2023/03/05 01:37:12;;;;;;;17.42;5.38;;;3.60;99.90;;;;;;5033567;28;20083;-63
2023/03/05 01:39:37;;;;;;;16.63;5.35;;;3.60;99.90;;;;;;5033595;28;20018;-63
2023/03/05 01:42:03;;;;;;;13.68;4.13;;;3.60;99.90;;;;;;5033397;28;20033;-63
2023/03/05 01:44:30;;;;;;;16.85;4.10;;;3.60;99.90;;;;;;5033492;28;20029;-63
2023/03/05 01:46:55;;;;;;;19.25;4.20;;;3.50;99.90;;;;;;5033302;28;20026;-63
2023/03/05 01:49:26;;;;;;;14.25;4.05;;;3.60;99.90;;;;;;5033568;28;20040;-63
2023/03/05 01:52:16;;;;;;;21.70;4.55;;;3.60;99.90;;;;;;5033353;28;20052;-63
2023/03/05 01:54:49;;;;;;;16.45;3.97;;;3.60;99.90;;;;;;5033236;28;20032;-63
2023/03/05 01:57:20;;;;;;;16.98;4.53;;;3.60;99.90;;;;;;5033549;28;20475;-63
2023/03/05 01:59:49;;;;;;;18.85;4.22;;;3.50;99.90;;;;;;5033271;28;20052;-62
2023/03/05 02:02:16;;;;;;;15.25;5.05;;;3.50;99.90;;;;;;5033088;28;20026;-62
2023/03/05 02:04:47;;;;;;;16.00;4.88;;;3.50;99.90;;;;;;5033214;28;20025;-63
2023/03/05 02:07:14;;;;;;;17.60;4.72;;;3.50;99.90;;;;;;5032925;28;20045;-62
2023/03/05 02:09:40;;;;;;;13.68;4.63;;;3.50;99.90;;;;;;5033185;28;20022;-63
2023/03/05 02:12:07;;;;;;;15.13;4.47;;;3.50;99.90;;;;;;5033180;28;20029;-63
2023/03/05 02:14:34;;;;;;;20.92;5.03;;;3.50;99.90;;;;;;5032158;28;20029;-63
2023/03/05 02:16:59;;;;;;;17.80;4.85;;;3.50;99.90;;;;;;5033156;28;20030;-63
2023/03/05 02:19:26;;;;;;;17.33;5.07;;;3.50;99.90;;;;;;5031857;28;20147;-63
2023/03/05 02:21:51;;;;;;;19.08;5.10;;;3.50;99.90;;;;;;5031733;28;20061;-63
2023/03/05 02:24:32;;;;;;;15.75;4.47;;;3.50;99.90;;;;;;5033245;28;20030;-63
2023/03/05 02:26:58;;;;;;;19.83;4.80;;;3.50;99.90;;;;;;5032049;28;20476;-63
2023/03/05 02:29:24;;;;;;;23.52;5.35;;;3.50;99.90;;;;;;5032956;28;20030;-63
2023/03/05 02:31:50;;;;;;;18.30;5.50;;;3.50;99.90;;;;;;5033165;28;20068;-63
2023/03/05 02:34:15;;;;;;;12.05;4.53;;;3.50;99.90;;;;;;5032947;28;20030;-63
2023/03/05 02:36:41;;;;;;;18.15;4.90;;;3.50;99.90;;;;;;5032928;28;20026;-63
2023/03/05 02:39:08;;;;;;;15.65;4.53;;;3.40;99.90;;;;;;5032914;28;20062;-63
2023/03/05 02:41:34;;;;;;;19.92;5.20;;;3.40;99.90;;;;;;5032947;28;20025;-63
2023/03/05 02:44:00;;;;;;;20.17;4.85;;;3.40;99.90;;;;;;5031692;28;20476;-63
2023/03/05 02:46:25;;;;;;;18.33;4.68;;;3.40;99.90;;;;;;5032835;28;20033;-63
2023/03/05 02:48:51;;;;;;;20.50;5.68;;;3.40;99.90;;;;;;5032807;28;20029;-63
2023/03/05 02:51:16;;;;;;;14.88;4.78;;;3.40;99.90;;;;;;5033029;28;20032;-63
2023/03/05 02:53:42;;;;;;;19.25;5.07;;;3.40;99.90;;;;;;5032810;28;20033;-63
2023/03/05 02:56:07;;;;;;;16.48;4.20;;;3.40;99.90;;;;;;5032829;28;20395;-63
2023/03/05 02:58:33;;;;;;;22.17;4.50;;;3.40;99.90;;;;;;5032956;28;20025;-63
2023/03/05 03:00:59;;;;;;;21.40;4.50;;;3.40;99.90;;;;;;5032784;28;20443;-63
2023/03/05 03:03:24;;;;;;;20.50;5.32;;;3.40;99.90;;;;;;5032884;28;20463;-63
2023/03/05 03:05:50;;;;;;;15.20;4.03;;;3.40;99.90;;;;;;5032431;28;20091;-63
2023/03/05 03:08:15;;;;;;;15.75;4.38;;;3.40;99.90;;;;;;5032661;28;20041;-63
2023/03/05 03:10:41;;;;;;;14.77;3.95;;;3.40;99.90;;;;;;5032842;28;20486;-63
2023/03/05 03:13:06;;;;;;;15.77;3.97;;;3.40;99.90;;;;;;5032837;28;20113;-63
2023/03/05 03:15:32;;;;;;;15.50;4.38;;;3.40;99.90;;;;;;5036209;28;20033;-63
2023/03/05 03:17:58;;;;;;;18.33;4.07;;;3.40;99.90;;;;;;5036201;28;20088;-63
2023/03/05 03:20:23;;;;;;;17.08;4.05;;;3.30;99.90;;;;;;5036071;28;20029;-63
2023/03/05 03:22:49;;;;;;;14.63;4.45;;;3.40;99.90;;;;;;5035917;28;20025;-63
2023/03/05 03:25:18;;;;;;;17.63;5.00;;;3.30;99.90;;;;;;5035960;28;20029;-63
2023/03/05 03:27:44;;;;;;;19.92;4.68;;;3.30;99.90;;;;;;5035968;28;20399;-63
2023/03/05 03:30:10;;;;;;;16.48;4.43;;;3.30;99.90;;;;;;5035969;28;20029;-63
2023/03/05 03:32:35;;;;;;;11.85;3.75;;;3.30;99.90;;;;;;5035910;28;20021;-63
2023/03/05 03:35:01;;;;;;;14.20;4.80;;;3.30;99.90;;;;;;5035933;28;20104;-63
2023/03/05 03:37:28;;;;;;;16.33;4.40;;;3.30;99.90;;;;;;5034885;28;20522;-63
2023/03/05 03:39:53;;;;;;;14.30;4.03;;;3.30;99.90;;;;;;5035696;28;20209;-63
2023/03/05 03:42:20;;;;;;;15.90;4.35;;;3.20;99.90;;;;;;5035707;28;20033;-63
2023/03/05 03:44:46;;;;;;;15.70;4.18;;;3.20;99.90;;;;;;5034510;28;20491;-63
2023/03/05 03:47:12;;;;;;;15.45;4.13;;;3.20;99.90;;;;;;5034475;28;20446;-63
2023/03/05 03:49:37;;;;;;;15.05;4.38;;;3.20;99.90;;;;;;5035498;28;20022;-63
2023/03/05 03:52:03;;;;;;;16.25;4.72;;;3.30;99.90;;;;;;5035643;28;20033;-63
2023/03/05 03:54:29;;;;;;;14.00;4.45;;;3.30;99.90;;;;;;5035643;28;20030;-63
2023/03/05 03:56:54;;;;;;;16.98;4.68;;;3.30;99.90;;;;;;5035398;28;20029;-63
2023/03/05 03:59:20;;;;;;;18.10;5.43;;;3.30;99.90;;;;;;5035401;28;20038;-63
2023/03/05 04:01:46;;;;;;;18.30;5.28;;;3.30;99.90;;;;;;5034247;28;20025;-63
2023/03/05 04:04:12;;;;;;;12.50;4.07;;;3.30;99.90;;;;;;5035321;28;20109;-63
2023/03/05 04:06:38;;;;;;;19.48;5.03;;;3.30;99.90;;;;;;5033883;28;20168;-63
2023/03/05 04:09:04;;;;;;;20.15;5.38;;;3.30;99.90;;;;;;5035306;28;20029;-63
2023/03/05 04:11:30;;;;;;;12.40;4.30;;;3.30;99.90;;;;;;5034369;28;20029;-63
2023/03/05 04:13:56;;;;;;;16.83;4.97;;;3.30;99.90;;;;;;5035067;28;20076;-63
2023/03/05 04:16:22;;;;;;;20.42;4.90;;;3.30;99.90;;;;;;5035076;28;20033;-63
2023/03/05 04:18:47;;;;;;;18.27;4.45;;;3.30;99.90;;;;;;5035070;28;20029;-63
2023/03/05 04:21:13;;;;;;;16.08;5.25;;;3.30;99.90;;;;;;5035234;28;20025;-63
2023/03/05 04:23:39;;;;;;;18.25;4.78;;;3.20;99.90;;;;;;5035032;28;20025;-63
2023/03/05 04:26:05;;;;;;;20.23;5.05;;;3.30;99.90;;;;;;5034879;28;20079;-63
2023/03/05 04:28:31;;;;;;;13.45;5.40;;;3.20;99.90;;;;;;5035038;28;20053;-63
2023/03/05 04:30:57;;;;;;;18.90;4.22;;;3.20;99.90;;;;;;5035010;28;20064;-63
2023/03/05 04:33:22;;;;;;;15.77;4.30;;;3.20;99.90;;;;;;5033572;28;20021;-63
2023/03/05 04:35:49;;;;;;;15.75;4.57;;;3.20;99.90;;;;;;5034694;28;20455;-64
2023/03/05 04:38:14;;;;;;;23.45;5.47;;;3.20;99.90;;;;;;5033508;28;20036;-63
2023/03/05 04:40:40;;;;;;;26.92;5.97;;;3.20;99.90;;;;;;5034651;28;20026;-63
2023/03/05 04:43:06;;;;;;;19.67;5.07;;;3.10;99.90;;;;;;5034761;28;20108;-63
2023/03/05 04:45:32;;;;;;;21.55;5.15;;;3.10;99.90;;;;;;5034575;28;20025;-63
2023/03/05 04:47:57;;;;;;;12.93;4.95;;;3.10;99.90;;;;;;5034355;28;20113;-63
2023/03/05 04:50:23;;;;;;;14.93;4.82;;;3.10;99.90;;;;;;5034699;28;20026;-63
2023/03/05 04:52:48;;;;;;;14.00;5.40;;;3.10;99.90;;;;;;5034368;28;20018;-63
2023/03/05 04:55:15;;;;;;;17.10;5.22;;;3.00;99.90;;;;;;5034524;28;20494;-63
2023/03/05 04:57:41;;;;;;;16.25;5.22;;;3.00;99.90;;;;;;5033176;28;20032;-63
2023/03/05 05:00:13;;;;;;;13.70;5.00;;;3.10;99.90;;;;;;5032821;28;20452;-63
2023/03/05 05:02:40;;;;;;;12.55;4.75;;;3.00;99.90;;;;;;5034402;28;20475;-63
2023/03/05 05:05:07;;;;;;;13.30;4.68;;;3.00;99.90;;;;;;5034034;28;20549;-63
2023/03/05 05:07:33;;;;;;;16.08;4.88;;;3.00;99.90;;;;;;5034070;28;20395;-63
2023/03/05 05:09:58;;;;;;;16.27;5.00;;;3.00;99.90;;;;;;5033995;28;20017;-63
2023/03/05 05:12:28;;;;;;;16.48;5.38;;;3.00;99.90;;;;;;5034000;28;20033;-62
2023/03/05 05:14:53;;;;;;;17.88;4.95;;;3.00;99.90;;;;;;5033974;28;20545;-63
2023/03/05 05:17:19;;;;;;;16.42;4.40;;;3.00;99.90;;;;;;5033921;28;20025;-63
2023/03/05 05:19:44;;;;;;;18.55;4.75;;;3.00;99.90;;;;;;5033869;28;20028;-62
2023/03/05 05:22:10;;;;;;;16.27;4.80;;;2.90;99.90;;;;;;5033937;28;20025;-63
2023/03/05 05:24:35;;;;;;;20.25;5.30;;;2.90;99.90;;;;;;5034173;28;20021;-63
2023/03/05 05:27:01;;;;;;;19.73;5.53;;;2.90;99.90;;;;;;5033754;28;20025;-62
2023/03/05 05:29:26;;;;;;;14.70;5.15;;;3.00;99.90;;;;;;5033674;28;20021;-63
2023/03/05 05:31:52;;;;;;;16.95;5.25;;;3.00;99.90;;;;;;5033659;28;20037;-63
2023/03/05 05:34:18;;;;;;;16.50;4.63;;;2.90;99.90;;;;;;5033829;28;20017;-62
2023/03/05 05:36:44;;;;;;;12.63;5.03;;;2.90;99.90;;;;;;5033207;28;20095;-63
2023/03/05 05:39:09;;;;;;;10.43;4.68;;;2.90;99.90;;;;;;5033482;28;20100;-63
2023/03/05 05:41:35;;;;;;;17.42;5.10;;;2.90;99.90;;;;;;5033491;28;20542;-63
2023/03/05 05:44:01;;;;;;;13.95;5.13;;;2.90;99.90;;;;;;5033731;28;20078;-63
2023/03/05 05:46:27;;;;;;;13.32;4.55;;;2.90;99.90;;;;;;5033334;28;20033;-63
2023/03/05 05:48:53;;;;;;;21.33;5.55;;;2.90;99.90;;;;;;5033410;28;20018;-63
2023/03/05 05:51:21;;;;;;;14.10;4.75;;;2.90;99.90;;;;;;5033329;28;20434;-63
2023/03/05 05:53:48;;;;;;;18.48;5.45;;;2.90;99.90;;;;;;5032416;28;20036;-63
2023/03/05 05:56:15;;;;;;;13.25;5.45;;;2.90;99.90;;;;;;5032221;28;20033;-62
2023/03/05 05:58:43;;;;;;;11.43;4.43;;;2.90;99.90;;;;;;5033565;28;20029;-63
2023/03/05 06:01:18;;;;;;;16.50;5.18;;;2.90;99.90;;;;;;5033357;28;20021;-63
2023/03/05 06:03:44;;;;;;;14.73;4.95;;;2.90;99.90;;;;;;5033224;28;20549;-63
2023/03/05 06:06:11;;;;;;;13.38;4.82;;;2.80;99.90;;;;;;5015492;28;20045;-63
2023/03/05 06:08:37;;;;;;;14.68;5.57;;;2.80;99.90;;;;;;5033397;28;20388;-63
2023/03/05 06:11:03;;;;;;;15.50;5.30;;;2.80;99.90;;;;;;5032136;28;20029;-63
2023/03/05 06:13:29;;;;;;;12.55;5.25;;;2.90;99.90;;;;;;5033312;28;20075;-63
2023/03/05 06:15:57;;;;;;;12.85;4.85;;;2.80;99.90;;;;;;5033108;28;20075;-63
2023/03/05 06:18:23;;;;;;;13.57;5.63;;;2.80;99.90;;;;;;5033145;28;20454;-63
2023/03/05 06:20:54;;;;;;;18.30;6.18;;;2.80;99.90;;;;;;5033083;28;20049;-62
2023/03/05 06:23:19;;;;;;;14.02;5.57;;;2.90;99.90;;;;;;5032865;28;20032;-63
2023/03/05 06:25:45;;;;;;;12.95;5.85;;;2.80;99.90;;;;;;5032988;28;20029;-63
2023/03/05 06:28:10;;;;;;;13.48;6.07;;;2.90;99.90;;;;;;5033109;28;20472;-63
2023/03/05 06:30:36;;;;;;;20.13;6.07;;;2.90;99.90;;;;;;5033177;28;20091;-64
2023/03/05 06:33:02;;;;;;;23.92;6.30;;;2.90;99.90;;;;;;5033033;28;20476;-63
2023/03/05 06:35:27;;;;;;;21.30;6.43;;;2.90;99.90;;;;;;5032929;28;20472;-63
2023/03/05 06:37:53;;;;;;;22.30;6.50;;;2.90;99.90;;;;;;5032878;28;20033;-63
2023/03/05 06:40:18;;;;;;;18.13;6.90;;;2.90;99.90;;;;;;5032923;28;20480;-63
2023/03/05 06:42:44;;;;;;;17.13;6.45;;;3.00;99.90;;;;;;5032933;28;20037;-62
2023/03/05 06:45:09;;;;;;;15.35;6.15;;;3.00;99.90;;;;;;5032977;28;20029;-63
2023/03/05 06:47:35;;;;;;;18.75;7.20;;;3.00;99.90;;;;;;5032813;28;20037;-63
2023/03/05 06:50:00;;;;;;;18.00;6.32;;;3.00;99.90;;;;;;5035977;28;20388;-63
2023/03/05 06:52:26;;;;;;;20.02;7.10;;;3.00;99.90;;;;;;5036572;28;20021;-63
2023/03/05 06:54:54;;;;;;;27.50;7.60;;;3.10;99.90;;;;;;5036805;28;20053;-63
2023/03/05 06:57:20;;;;;;;19.88;7.57;;;3.10;99.90;;;;;;5036788;28;20116;-63
2023/03/05 06:59:46;;;;;;;14.90;7.53;;;3.10;99.90;;;;;;5036527;28;20477;-63
2023/03/05 07:02:12;;;;;;;20.38;8.02;;;3.20;99.90;;;;;;5036545;28;20163;-63
2023/03/05 07:04:38;;;;;;;23.75;7.80;;;3.20;99.90;;;;;;5036651;28;20494;-63
2023/03/05 07:07:03;;;;;;;13.40;6.90;;;3.20;99.90;;;;;;5036257;28;20045;-63
2023/03/05 07:09:29;;;;;;;20.80;8.10;;;3.20;99.90;;;;;;5036241;28;20033;-63
2023/03/05 07:11:55;;;;;;;21.70;8.68;;;3.30;99.90;;;;;;5036272;28;20163;-62
2023/03/05 07:14:21;;;;;;;22.42;8.25;;;3.40;99.90;;;;;;5035338;28;20167;-63
2023/03/05 07:16:47;;;;;;;18.42;8.35;;;3.30;99.90;;;;;;5035094;28;20394;-63
2023/03/05 07:19:13;;;;;;;26.45;8.88;;;3.40;99.90;;;;;;5036411;28;20104;-63
2023/03/05 07:21:38;;;;;;;20.50;8.57;;;3.40;99.90;;;;;;5035183;28;20030;-63
2023/03/05 07:24:05;;;;;;;21.00;8.65;;;3.40;99.90;;;;;;5036151;28;20483;-63
2023/03/05 07:26:32;;;;;;;27.38;9.57;;;3.40;99.90;;;;;;5035933;28;20403;-62
2023/03/05 07:28:58;;;;;;;19.80;9.35;;;3.40;99.90;;;;;;5036144;28;20406;-63
2023/03/05 07:31:29;;;;;;;23.02;9.20;;;3.40;99.90;;;;;;5034945;28;20025;-63
2023/03/05 07:33:55;;;;;;;19.63;9.70;;;3.40;99.90;;;;;;5035879;28;20049;-63
2023/03/05 07:36:22;;;;;;;25.70;9.30;;;3.50;99.90;;;;;;5035814;28;20546;-63
2023/03/05 07:38:47;;;;;;;25.08;9.40;;;3.50;99.90;;;;;;5034723;28;20147;-63
2023/03/05 07:41:20;;;;;;;23.75;9.70;;;3.50;99.90;;;;;;5035925;28;20484;-63
2023/03/05 07:43:47;;;;;;;23.13;10.40;;;3.50;99.90;;;;;;5034859;28;20494;-63
2023/03/05 07:46:16;;;;;;;20.35;9.43;;;3.60;99.90;;;;;;5035643;28;20040;-63
2023/03/05 07:48:41;;;;;;;22.08;10.00;;;3.60;99.90;;;;;;5035861;28;20025;-63
2023/03/05 07:51:13;;;;;;;22.40;9.60;;;3.70;99.90;;;;;;5035626;28;20025;-63
2023/03/05 07:53:39;;;;;;;17.58;8.32;;;3.70;99.90;;;;;;5034591;28;20022;-63
2023/03/05 07:56:05;;;;;;;19.45;8.35;;;3.60;99.90;;;;;;5035443;28;20056;-63
2023/03/05 07:58:30;;;;;;;17.95;8.10;;;3.70;99.90;;;;;;5034200;28;20102;-63
2023/03/05 08:00:56;;;;;;;15.70;8.07;;;3.70;99.90;;;;;;5035148;28;20092;-63
2023/03/05 08:03:22;;;;;;;21.25;8.57;;;3.60;99.90;;;;;;5035314;28;20025;-63
2023/03/05 08:05:47;;;;;;;25.27;10.27;;;3.50;99.90;;;;;;5033659;28;20049;-63
2023/03/05 08:08:13;;;;;;;23.85;9.60;;;3.60;99.90;;;;;;5035306;28;20099;-63
2023/03/05 08:10:39;;;;;;;20.50;10.05;;;3.60;99.90;;;;;;5035425;28;20056;-63
2023/03/05 08:13:05;;;;;;;27.67;10.27;;;3.60;99.90;;;;;;5035183;28;20061;-63
2023/03/05 08:15:31;;;;;;;26.25;10.00;;;3.60;99.90;;;;;;5035300;28;20510;-63
2023/03/05 08:17:57;;;;;;;20.85;10.32;;;3.60;99.90;;;;;;5035190;28;20065;-63
2023/03/05 08:20:23;;;;;;;18.73;10.18;;;3.60;99.90;;;;;;5035033;28;20377;-63
2023/03/05 08:22:49;;;;;;;20.30;10.57;;;3.60;99.90;;;;;;5035057;28;20112;-63
2023/03/05 08:25:14;;;;;;;19.95;10.75;;;3.70;99.90;;;;;;5034919;28;20029;-63
2023/03/05 08:27:43;;;;;;;25.35;10.73;;;3.70;99.90;;;;;;5034879;28;20029;-63
2023/03/05 08:30:11;;;;;;;20.15;10.90;;;3.70;99.90;;;;;;5017552;28;20021;-63
2023/03/05 08:32:37;;;;;;;23.17;10.07;;;3.70;99.90;;;;;;5034988;28;20112;-63
2023/03/05 08:35:03;;;;;;;19.70;10.13;;;3.80;99.90;;;;;;5034712;28;20108;-63
2023/03/05 08:37:29;;;;;;;24.17;10.25;;;3.90;99.90;;;;;;5034514;28;20029;-63
2023/03/05 08:39:55;;;;;;;17.38;10.02;;;3.90;99.90;;;;;;5034610;28;20065;-63
2023/03/05 08:42:21;;;;;;;23.08;9.80;;;3.90;99.90;;;;;;5034609;28;20041;-63
2023/03/05 08:44:46;;;;;;;17.02;9.52;;;3.90;99.90;;;;;;5034597;28;20083;-63
2023/03/05 08:47:12;;;;;;;23.45;9.23;;;3.90;99.90;;;;;;5034488;28;20029;-63
2023/03/05 08:49:38;;;;;;;19.00;9.20;;;3.90;99.90;;;;;;5034535;28;20053;-62
2023/03/05 08:52:04;;;;;;;18.67;8.50;;;4.00;99.90;;;;;;5034640;28;20028;-63
2023/03/05 08:54:29;;;;;;;15.38;9.00;;;3.90;99.90;;;;;;5034296;28;20476;-63
2023/03/05 08:56:55;;;;;;;19.50;9.60;;;3.90;99.90;;;;;;5034268;28;20029;-63
2023/03/05 08:59:20;;;;;;;20.13;9.65;;;4.00;99.90;;;;;;5034106;28;20123;-63
2023/03/05 09:01:46;;;;;;;11.68;7.70;;;4.00;99.90;;;;;;5034247;28;20034;-63
2023/03/05 09:04:12;;;;;;;14.52;7.82;;;3.90;99.90;;;;;;5034420;28;20034;-62
2023/03/05 09:06:39;;;;;;;16.70;8.30;;;3.80;99.90;;;;;;5034187;28;20387;-63
2023/03/05 09:09:06;;;;;;;12.32;7.22;;;3.80;99.90;;;;;;5034496;28;20505;-62
2023/03/05 09:11:34;;;;;;;11.75;7.65;;;3.90;99.90;;;;;;5032435;28;20049;-63
2023/03/05 09:14:01;;;;;;;12.50;7.07;;;3.90;99.90;;;;;;5033907;28;20100;-63
2023/03/05 09:16:27;;;;;;;13.85;7.60;;;3.90;99.90;;;;;;5033999;28;20032;-63
2023/03/05 09:18:53;;;;;;;14.55;7.32;;;4.00;99.90;;;;;;5034158;28;20029;-63
2023/03/05 09:21:18;;;;;;;16.13;7.10;;;4.00;99.90;;;;;;5033870;28;20033;-63
2023/03/05 09:23:45;;;;;;;15.07;7.20;;;4.20;99.90;;;;;;5033834;28;20113;-63
2023/03/05 09:26:14;;;;;;;15.32;6.70;;;4.40;99.90;;;;;;5033829;28;20038;-63
2023/03/05 09:28:40;;;;;;;12.65;6.70;;;4.60;99.90;;;;;;5033763;28;20458;-63
2023/03/05 09:31:07;;;;;;;13.48;6.60;;;4.90;99.90;;;;;;5032550;28;20472;-63
2023/03/05 09:33:34;;;;;;;11.90;5.88;;;5.10;99.90;;;;;;5032488;28;20017;-63
2023/03/05 09:36:01;;;;;;;13.82;5.85;;;5.30;99.90;;;;;;5033861;28;20041;-63
2023/03/05 09:38:27;;;;;;;14.25;6.30;;;5.40;99.90;;;;;;5032363;28;20029;-63
2023/03/05 09:41:16;;;;;;;10.55;5.50;;;5.40;99.90;;;;;;5033748;28;20104;-63
2023/03/05 09:43:50;;;;;;;10.63;5.70;;;5.50;99.90;;;;;;5033652;28;20479;-63
2023/03/05 09:46:29;;;;;;;12.00;5.90;;;5.50;99.90;;;;;;5033622;28;20397;-63
2023/03/05 09:49:24;;;;;;;10.90;5.93;;;5.30;99.90;;;;;;5033404;28;20529;-63
2023/03/05 09:51:59;;;;;;;8.70;5.50;;;5.50;99.90;;;;;;5033270;28;20025;-63
2023/03/05 09:54:34;;;;;;;8.80;5.50;;;5.50;99.90;;;;;;5033351;28;20022;-63
2023/03/05 09:57:03;;;;;;;8.82;5.55;;;5.60;99.90;;;;;;5033240;28;20143;-63
2023/03/05 09:59:44;;;;;;;13.23;6.00;;;5.80;99.90;;;;;;5032093;28;20108;-63
2023/03/05 10:02:19;;;;;;;12.70;5.90;;;6.20;99.90;;;;;;5033386;28;20030;-64
2023/03/05 10:04:56;;;;;;;10.43;5.30;;;6.10;99.90;;;;;;5033446;28;20026;-63
2023/03/05 10:07:28;;;;;;;12.65;5.32;;;6.20;99.90;;;;;;5032973;28;20498;-63
2023/03/05 10:10:00;;;;;;;10.67;4.77;;;6.00;99.90;;;;;;5033214;28;20036;-63
2023/03/05 10:12:51;;;;;;;10.05;5.07;;;5.60;99.90;;;;;;5033058;28;20399;-63
2023/03/05 10:15:49;;;;;;;12.65;5.68;;;5.50;99.90;;;;;;5033081;28;20022;-63
2023/03/05 10:18:54;;;;;;;11.00;5.22;;;5.60;99.90;;;;;;5032980;28;20089;-63
2023/03/05 10:21:26;;;;;;;13.68;5.63;;;5.60;99.90;;;;;;5032993;28;20029;-63
2023/03/05 10:24:17;;;;;;;8.90;4.47;;;5.60;99.90;;;;;;5036266;28;20049;-63
2023/03/05 10:27:08;;;;;;;14.40;5.22;;;5.50;99.90;;;;;;5036997;28;20057;-63
2023/03/05 10:29:54;;;;;;;8.27;4.90;;;5.40;99.90;;;;;;5037068;28;20032;-63
2023/03/05 10:32:49;;;;;;;8.40;4.00;;;5.40;99.90;;;;;;5037050;28;20112;-63
2023/03/05 10:35:44;;;;;;;6.75;3.40;;;4.60;99.90;;;;;;5037028;28;20078;-63
2023/03/05 10:40:53;;;;;;;4.55;3.50;;;4.00;99.90;;;;;;5111103;27;20384;-62
2023/03/05 10:43:43;;;;;;;5.93;3.70;;;3.50;99.90;;;;;;5111165;28;20081;-62
2023/03/05 10:46:16;;;;;;;7.10;4.15;;;3.50;99.90;;;;;;5110994;28;20024;-63
2023/03/05 10:49:04;;;;;;;8.30;4.10;;;3.60;99.90;;;;;;5111082;28;20060;-63
2023/03/05 10:51:42;;;;;;;6.90;3.22;;;3.90;99.90;;;;;;5111038;28;20411;-62
2023/03/05 10:54:24;;;;;;;6.35;3.80;;;4.20;99.90;;;;;;5111059;28;20028;-62
2023/03/05 10:56:49;;;;;;;7.18;4.25;;;4.30;99.90;;;;;;5110903;28;20031;-63
2023/03/05 10:59:15;;;;;;;11.20;5.07;;;4.40;99.90;;;;;;5109620;28;20057;-63
2023/03/05 11:01:41;;;;;;;10.85;5.38;;;4.30;99.90;;;;;;5111041;28;20019;-64
2023/03/05 11:04:24;;;;;;;7.22;4.43;;;4.40;99.90;;;;;;5110952;28;20031;-63
2023/03/05 11:06:50;;;;;;;12.10;5.05;;;4.50;99.90;;;;;;5110801;28;20031;-63
2023/03/05 11:09:23;;;;;;;12.02;5.55;;;4.50;99.90;;;;;;5110645;28;20023;-63
2023/03/05 11:12:10;;;;;;;12.48;5.82;;;4.70;99.90;;;;;;5110774;28;20500;-63
2023/03/05 11:14:39;;;;;;;13.35;6.07;;;5.00;99.90;;;;;;5109641;28;20030;-63
2023/03/05 11:17:27;;;;;;;9.90;5.80;;;5.30;99.90;;;;;;5110535;28;20114;-63
2023/03/05 11:19:54;;;;;;;13.02;5.47;;;5.60;99.90;;;;;;5110369;28;20057;-63
2023/03/05 11:22:22;;;;;;;10.52;5.30;;;5.50;99.90;;;;;;5110375;28;20477;-63
2023/03/05 11:25:17;;;;;;;9.68;6.10;;;5.50;99.90;;;;;;5109339;28;20024;-63
2023/03/05 11:27:50;;;;;;;7.68;4.07;;;5.40;99.90;;;;;;5110384;28;20077;-62
2023/03/05 11:30:24;;;;;;;8.50;3.15;;;5.10;99.90;;;;;;5110260;28;20024;-63
2023/03/05 11:33:05;;;;;;;8.23;2.28;;;5.10;99.90;;;;;;5110357;28;20027;-64
2023/03/05 11:35:34;;;;;;;5.63;1.27;;;4.70;99.90;;;;;;5109954;28;20027;-62
2023/03/05 11:38:02;;;;;;;1.88;0.80;;;4.50;99.90;;;;;;5110174;28;20032;-62
2023/03/05 11:40:30;;;;;;;2.47;0.55;;;4.20;99.90;;;;;;5109810;28;20467;-62
2023/03/05 11:42:58;;;;;;;2.22;1.00;;;3.90;99.90;;;;;;5109996;28;20077;-62
2023/03/05 11:45:25;;;;;;;0.82;0.73;;;3.80;99.90;;;;;;5108642;28;20055;-62
2023/03/05 11:47:56;;;;;;;2.72;0.57;;;3.80;99.90;;;;;;5109914;28;20023;-63
2023/03/05 11:50:31;;;;;;;1.70;0.68;;;3.80;99.90;;;;;;5106528;28;20028;-63
2023/03/05 11:53:02;;;;;;;3.30;1.15;;;3.70;99.90;;;;;;5095178;28;20020;-63
2023/03/05 11:55:50;;;;;;;3.40;0.73;;;3.70;99.90;;;;;;5095228;28;20363;-63
2023/03/05 11:58:56;;;;;;;4.85;1.00;;;3.60;99.90;;;;;;5094887;28;20482;-63
2023/03/05 12:01:23;;;;;;;2.40;1.05;;;3.60;99.90;;;;;;5096003;28;20024;-63
2023/03/05 12:03:51;;;;;;;1.83;0.90;;;3.50;99.90;;;;;;5096020;28;20051;-63
2023/03/05 12:06:39;;;;;;;3.75;1.10;;;3.60;99.90;;;;;;5096023;28;20024;-63
2023/03/05 12:09:12;;;;;;;4.70;1.15;;;3.70;99.90;;;;;;5095932;28;20105;-63
2023/03/05 12:11:38;;;;;;;3.70;1.80;;;3.80;99.90;;;;;;5096006;28;20024;-63
2023/03/05 12:14:18;;;;;;;4.50;1.38;;;3.90;99.90;;;;;;5095785;28;20386;-63
2023/03/05 12:17:10;;;;;;;2.53;1.35;;;4.00;99.90;;;;;;5095779;28;20428;-63
2023/03/05 12:19:56;;;;;;;2.15;1.27;;;4.00;99.90;;;;;;5095580;28;20031;-63
2023/03/05 12:22:25;;;;;;;2.00;1.30;;;4.20;99.90;;;;;;5095680;28;20024;-63
2023/03/05 12:24:51;;;;;;;2.65;1.42;;;4.30;99.90;;;;;;5095619;28;20028;-63
2023/03/05 12:27:34;;;;;;;1.88;1.05;;;4.50;99.90;;;;;;5095583;28;20386;-63
2023/03/05 12:30:00;;;;;;;1.67;1.13;;;4.50;99.90;;;;;;5094367;28;20485;-63
2023/03/05 12:32:31;;;;;;;2.42;0.90;;;4.70;99.90;;;;;;5094114;28;20073;-63
2023/03/05 12:40:30;;;;;;;3.20;1.40;;;5.20;99.90;;;;;;5111105;27;20380;-63
2023/03/05 12:43:05;;;;;;;3.13;1.63;;;5.40;99.90;;;;;;5109669;28;20032;-63
2023/03/05 12:48:13;;;;;;;3.80;1.80;;;5.60;99.90;;;;;;5090929;27;20162;-63
2023/03/05 12:53:19;;;;;;;4.10;1.38;;;6.00;99.90;;;;;;5070630;28;20930;-63
2023/03/05 12:55:55;;;;;;;5.47;1.27;;;6.30;99.90;;;;;;5070635;28;20025;-63
2023/03/05 12:58:43;;;;;;;3.85;1.70;;;6.50;99.90;;;;;;5070534;28;20045;-63
2023/03/05 13:03:52;;;;;;;3.20;1.50;;;6.70;99.90;;;;;;5111177;27;20376;-64
2023/03/05 13:06:31;;;;;;;3.05;1.48;;;7.00;99.90;;;;;;5110182;28;20028;-63
2023/03/05 13:09:06;;;;;;;3.28;1.50;;;7.00;99.90;;;;;;5109914;28;20024;-63
2023/03/05 13:11:36;;;;;;;2.08;1.33;;;7.20;99.90;;;;;;5111182;28;20469;-63
2023/03/05 13:14:02;;;;;;;5.03;2.13;;;7.20;99.90;;;;;;5110916;28;20073;-63